Terminal Aerodrome Forecast
Issued by NWS

Home | Current Version | Previous Version | Text Only | Print | Product List | Glossary Off
Versions: 1 2 3 4 5 6 7 8 9 10 11 12 13 14 15 16

000
FTUS43 KGRB 222325
TAFRHI
TAF
KRHI 222325Z 2300/2324 28006KT P6SM SKC
     FM230200 VRB02KT P6SM SKC
      TEMPO 2307/2311 1SM BR SCT006
     FM231400 11005KT P6SM SCT250
     FM231800 16008G15KT P6SM SCT040 BKN250=

USA.gov is the U.S. government's official web portal to all federal, state and local government web resources and services.